sensor_id;sensor_type;location;lat;lon;timestamp;P1;durP1;ratioP1;P2;durP2;ratioP2
26050;SDS011;13825;53.496;10.020;2023-05-10T00:00:10;3.50;;;3.20;;
26050;SDS011;13825;53.496;10.020;2023-05-10T00:02:38;2.90;;;2.60;;
26050;SDS011;13825;53.496;10.020;2023-05-10T00:05:07;4.10;;;2.77;;
26050;SDS011;13825;53.496;10.020;2023-05-10T00:07:36;3.07;;;2.73;;
26050;SDS011;13825;53.496;10.020;2023-05-10T00:10:03;3.60;;;3.30;;
26050;SDS011;13825;53.496;10.020;2023-05-10T00:12:30;4.33;;;3.00;;
26050;SDS011;13825;53.496;10.020;2023-05-10T00:14:57;3.17;;;2.80;;
26050;SDS011;13825;53.496;10.020;2023-05-10T00:17:24;4.20;;;3.03;;
26050;SDS011;13825;53.496;10.020;2023-05-10T00:19:51;3.57;;;3.10;;
26050;SDS011;13825;53.496;10.020;2023-05-10T00:22:19;5.73;;;2.93;;
26050;SDS011;13825;53.496;10.020;2023-05-10T00:24:50;4.97;;;3.10;;
26050;SDS011;13825;53.496;10.020;2023-05-10T00:27:17;3.13;;;2.70;;
26050;SDS011;13825;53.496;10.020;2023-05-10T00:29:44;4.50;;;3.50;;
26050;SDS011;13825;53.496;10.020;2023-05-10T00:32:10;7.37;;;3.40;;
26050;SDS011;13825;53.496;10.020;2023-05-10T00:34:39;5.77;;;3.90;;
26050;SDS011;13825;53.496;10.020;2023-05-10T00:37:06;5.27;;;3.13;;
26050;SDS011;13825;53.496;10.020;2023-05-10T00:39:33;4.67;;;3.33;;
26050;SDS011;13825;53.496;10.020;2023-05-10T00:42:01;4.17;;;3.50;;
26050;SDS011;13825;53.496;10.020;2023-05-10T00:44:29;3.87;;;2.97;;
26050;SDS011;13825;53.496;10.020;2023-05-10T00:46:56;4.27;;;3.27;;
26050;SDS011;13825;53.496;10.020;2023-05-10T00:49:24;5.10;;;3.10;;
26050;SDS011;13825;53.496;10.020;2023-05-10T00:51:51;4.90;;;3.17;;
26050;SDS011;13825;53.496;10.020;2023-05-10T00:54:18;5.07;;;3.10;;
26050;SDS011;13825;53.496;10.020;2023-05-10T00:56:46;4.80;;;3.30;;
26050;SDS011;13825;53.496;10.020;2023-05-10T00:59:15;4.67;;;3.57;;
26050;SDS011;13825;53.496;10.020;2023-05-10T01:01:43;4.27;;;3.20;;
26050;SDS011;13825;53.496;10.020;2023-05-10T01:04:10;5.23;;;3.20;;
26050;SDS011;13825;53.496;10.020;2023-05-10T01:06:38;4.77;;;3.30;;
26050;SDS011;13825;53.496;10.020;2023-05-10T01:09:05;5.93;;;2.90;;
26050;SDS011;13825;53.496;10.020;2023-05-10T01:11:32;6.73;;;3.43;;
26050;SDS011;13825;53.496;10.020;2023-05-10T01:14:00;4.30;;;3.20;;
26050;SDS011;13825;53.496;10.020;2023-05-10T01:16:31;5.33;;;3.50;;
26050;SDS011;13825;53.496;10.020;2023-05-10T01:19:01;6.43;;;4.97;;
26050;SDS011;13825;53.496;10.020;2023-05-10T01:21:31;4.93;;;3.30;;
26050;SDS011;13825;53.496;10.020;2023-05-10T01:27:15;4.43;;;3.47;;
26050;SDS011;13825;53.496;10.020;2023-05-10T01:30:08;8.67;;;3.40;;
26050;SDS011;13825;53.496;10.020;2023-05-10T01:33:02;5.60;;;3.50;;
26050;SDS011;13825;53.496;10.020;2023-05-10T01:35:37;4.90;;;3.47;;
26050;SDS011;13825;53.496;10.020;2023-05-10T01:38:11;4.90;;;3.60;;
26050;SDS011;13825;53.496;10.020;2023-05-10T01:40:47;4.87;;;3.10;;
26050;SDS011;13825;53.496;10.020;2023-05-10T01:43:24;5.27;;;3.70;;
26050;SDS011;13825;53.496;10.020;2023-05-10T01:45:59;4.20;;;3.40;;
26050;SDS011;13825;53.496;10.020;2023-05-10T01:48:36;3.40;;;3.10;;
26050;SDS011;13825;53.496;10.020;2023-05-10T01:51:08;6.70;;;3.70;;
26050;SDS011;13825;53.496;10.020;2023-05-10T01:53:36;6.50;;;3.60;;
26050;SDS011;13825;53.496;10.020;2023-05-10T01:56:05;5.90;;;3.83;;
26050;SDS011;13825;53.496;10.020;2023-05-10T01:58:36;4.07;;;3.47;;
26050;SDS011;13825;53.496;10.020;2023-05-10T02:01:05;6.00;;;3.67;;
26050;SDS011;13825;53.496;10.020;2023-05-10T02:03:33;6.07;;;4.13;;
26050;SDS011;13825;53.496;10.020;2023-05-10T02:06:05;5.63;;;3.60;;
26050;SDS011;13825;53.496;10.020;2023-05-10T02:08:33;7.87;;;3.67;;
26050;SDS011;13825;53.496;10.020;2023-05-10T02:11:02;4.87;;;3.53;;
26050;SDS011;13825;53.496;10.020;2023-05-10T02:13:30;3.57;;;3.23;;
26050;SDS011;13825;53.496;10.020;2023-05-10T02:16:00;4.97;;;3.87;;
26050;SDS011;13825;53.496;10.020;2023-05-10T02:18:29;4.00;;;3.27;;
26050;SDS011;13825;53.496;10.020;2023-05-10T02:20:59;4.23;;;3.30;;
26050;SDS011;13825;53.496;10.020;2023-05-10T02:23:27;6.67;;;3.60;;
26050;SDS011;13825;53.496;10.020;2023-05-10T02:25:56;4.53;;;3.57;;
26050;SDS011;13825;53.496;10.020;2023-05-10T02:28:24;4.57;;;3.73;;
26050;SDS011;13825;53.496;10.020;2023-05-10T02:30:54;4.30;;;3.60;;
26050;SDS011;13825;53.496;10.020;2023-05-10T02:33:22;5.33;;;3.67;;
26050;SDS011;13825;53.496;10.020;2023-05-10T02:35:50;5.03;;;4.13;;
26050;SDS011;13825;53.496;10.020;2023-05-10T02:38:20;4.63;;;3.50;;
26050;SDS011;13825;53.496;10.020;2023-05-10T02:40:49;5.63;;;3.70;;
26050;SDS011;13825;53.496;10.020;2023-05-10T02:43:18;4.90;;;3.73;;
26050;SDS011;13825;53.496;10.020;2023-05-10T02:45:46;5.67;;;4.07;;
26050;SDS011;13825;53.496;10.020;2023-05-10T02:48:14;5.97;;;4.00;;
26050;SDS011;13825;53.496;10.020;2023-05-10T02:50:42;4.83;;;3.37;;
26050;SDS011;13825;53.496;10.020;2023-05-10T02:53:15;7.03;;;4.43;;
26050;SDS011;13825;53.496;10.020;2023-05-10T02:55:48;4.80;;;3.63;;
26050;SDS011;13825;53.496;10.020;2023-05-10T02:58:17;6.07;;;4.37;;
26050;SDS011;13825;53.496;10.020;2023-05-10T03:00:46;6.07;;;3.83;;
26050;SDS011;13825;53.496;10.020;2023-05-10T03:03:13;7.07;;;4.13;;
26050;SDS011;13825;53.496;10.020;2023-05-10T03:05:40;4.90;;;3.60;;
26050;SDS011;13825;53.496;10.020;2023-05-10T03:08:07;5.07;;;3.80;;
26050;SDS011;13825;53.496;10.020;2023-05-10T03:10:37;3.87;;;3.33;;
26050;SDS011;13825;53.496;10.020;2023-05-10T03:13:15;4.60;;;3.60;;
26050;SDS011;13825;53.496;10.020;2023-05-10T03:15:53;5.17;;;3.77;;
26050;SDS011;13825;53.496;10.020;2023-05-10T03:18:28;7.07;;;4.13;;
26050;SDS011;13825;53.496;10.020;2023-05-10T03:21:01;4.70;;;3.97;;
26050;SDS011;13825;53.496;10.020;2023-05-10T03:23:34;4.97;;;3.93;;
26050;SDS011;13825;53.496;10.020;2023-05-10T03:26:06;5.23;;;4.17;;
26050;SDS011;13825;53.496;10.020;2023-05-10T03:28:36;4.50;;;3.40;;
26050;SDS011;13825;53.496;10.020;2023-05-10T03:31:03;4.87;;;3.87;;
26050;SDS011;13825;53.496;10.020;2023-05-10T03:33:32;5.67;;;3.90;;
26050;SDS011;13825;53.496;10.020;2023-05-10T03:35:59;4.20;;;3.67;;
26050;SDS011;13825;53.496;10.020;2023-05-10T03:38:26;3.47;;;3.13;;
26050;SDS011;13825;53.496;10.020;2023-05-10T03:40:52;5.30;;;4.03;;
26050;SDS011;13825;53.496;10.020;2023-05-10T03:43:20;4.83;;;3.70;;
26050;SDS011;13825;53.496;10.020;2023-05-10T03:45:49;5.33;;;3.90;;
26050;SDS011;13825;53.496;10.020;2023-05-10T03:48:16;6.10;;;3.97;;
26050;SDS011;13825;53.496;10.020;2023-05-10T03:50:43;4.30;;;3.87;;
26050;SDS011;13825;53.496;10.020;2023-05-10T03:53:10;5.27;;;3.67;;
26050;SDS011;13825;53.496;10.020;2023-05-10T03:55:37;5.63;;;3.93;;
26050;SDS011;13825;53.496;10.020;2023-05-10T03:58:04;5.53;;;3.73;;
26050;SDS011;13825;53.496;10.020;2023-05-10T04:00:31;5.63;;;3.67;;
26050;SDS011;13825;53.496;10.020;2023-05-10T04:02:59;4.73;;;3.93;;
26050;SDS011;13825;53.496;10.020;2023-05-10T04:05:26;4.43;;;3.27;;
26050;SDS011;13825;53.496;10.020;2023-05-10T04:07:53;6.50;;;3.97;;
26050;SDS011;13825;53.496;10.020;2023-05-10T04:10:20;5.87;;;3.97;;
26050;SDS011;13825;53.496;10.020;2023-05-10T04:12:47;5.83;;;4.40;;
26050;SDS011;13825;53.496;10.020;2023-05-10T04:15:14;5.00;;;3.80;;
26050;SDS011;13825;53.496;10.020;2023-05-10T04:17:41;4.63;;;3.70;;
26050;SDS011;13825;53.496;10.020;2023-05-10T04:20:10;6.30;;;3.67;;
26050;SDS011;13825;53.496;10.020;2023-05-10T04:22:37;4.80;;;3.43;;
26050;SDS011;13825;53.496;10.020;2023-05-10T04:25:05;6.40;;;4.30;;
26050;SDS011;13825;53.496;10.020;2023-05-10T04:27:33;4.37;;;3.70;;
26050;SDS011;13825;53.496;10.020;2023-05-10T04:29:59;5.67;;;4.40;;
26050;SDS011;13825;53.496;10.020;2023-05-10T04:32:27;4.30;;;3.90;;
26050;SDS011;13825;53.496;10.020;2023-05-10T04:34:54;4.73;;;3.70;;
26050;SDS011;13825;53.496;10.020;2023-05-10T04:37:22;3.80;;;3.27;;
26050;SDS011;13825;53.496;10.020;2023-05-10T04:39:49;4.73;;;3.53;;
26050;SDS011;13825;53.496;10.020;2023-05-10T04:42:16;4.20;;;3.57;;
26050;SDS011;13825;53.496;10.020;2023-05-10T04:44:43;8.90;;;3.93;;
26050;SDS011;13825;53.496;10.020;2023-05-10T04:47:10;5.33;;;3.90;;
26050;SDS011;13825;53.496;10.020;2023-05-10T04:49:38;6.87;;;4.07;;
26050;SDS011;13825;53.496;10.020;2023-05-10T04:52:05;5.57;;;3.67;;
26050;SDS011;13825;53.496;10.020;2023-05-10T04:54:33;4.87;;;3.77;;
26050;SDS011;13825;53.496;10.020;2023-05-10T04:57:00;5.50;;;3.77;;
26050;SDS011;13825;53.496;10.020;2023-05-10T04:59:27;5.77;;;4.27;;
26050;SDS011;13825;53.496;10.020;2023-05-10T05:01:54;4.93;;;3.43;;
26050;SDS011;13825;53.496;10.020;2023-05-10T05:04:21;4.53;;;3.50;;
26050;SDS011;13825;53.496;10.020;2023-05-10T05:06:48;8.90;;;3.73;;
26050;SDS011;13825;53.496;10.020;2023-05-10T05:09:15;4.47;;;3.43;;
26050;SDS011;13825;53.496;10.020;2023-05-10T05:11:43;5.07;;;3.60;;
26050;SDS011;13825;53.496;10.020;2023-05-10T05:14:10;5.33;;;3.77;;
26050;SDS011;13825;53.496;10.020;2023-05-10T05:16:37;6.23;;;4.07;;
26050;SDS011;13825;53.496;10.020;2023-05-10T05:19:04;4.87;;;3.53;;
26050;SDS011;13825;53.496;10.020;2023-05-10T05:21:31;5.97;;;4.10;;
26050;SDS011;13825;53.496;10.020;2023-05-10T05:23:58;5.97;;;3.83;;
26050;SDS011;13825;53.496;10.020;2023-05-10T05:26:26;4.27;;;3.50;;
26050;SDS011;13825;53.496;10.020;2023-05-10T05:28:54;5.43;;;3.33;;
26050;SDS011;13825;53.496;10.020;2023-05-10T05:31:21;7.43;;;3.87;;
26050;SDS011;13825;53.496;10.020;2023-05-10T05:33:48;5.27;;;3.50;;
26050;SDS011;13825;53.496;10.020;2023-05-10T05:36:15;4.10;;;3.70;;
26050;SDS011;13825;53.496;10.020;2023-05-10T05:38:42;7.17;;;3.60;;
26050;SDS011;13825;53.496;10.020;2023-05-10T05:41:09;4.53;;;3.30;;
26050;SDS011;13825;53.496;10.020;2023-05-10T05:43:36;4.10;;;3.37;;
26050;SDS011;13825;53.496;10.020;2023-05-10T05:46:04;4.43;;;3.33;;
26050;SDS011;13825;53.496;10.020;2023-05-10T05:48:31;5.43;;;3.63;;
26050;SDS011;13825;53.496;10.020;2023-05-10T05:50:58;4.60;;;3.63;;
26050;SDS011;13825;53.496;10.020;2023-05-10T05:53:28;6.67;;;3.30;;
26050;SDS011;13825;53.496;10.020;2023-05-10T05:55:55;5.13;;;3.40;;
26050;SDS011;13825;53.496;10.020;2023-05-10T05:58:24;4.83;;;3.73;;
26050;SDS011;13825;53.496;10.020;2023-05-10T06:00:51;4.80;;;3.63;;
26050;SDS011;13825;53.496;10.020;2023-05-10T06:03:20;4.10;;;3.70;;
26050;SDS011;13825;53.496;10.020;2023-05-10T06:05:46;4.53;;;3.63;;
26050;SDS011;13825;53.496;10.020;2023-05-10T06:08:13;4.37;;;3.20;;
26050;SDS011;13825;53.496;10.020;2023-05-10T06:10:41;4.60;;;3.10;;
26050;SDS011;13825;53.496;10.020;2023-05-10T06:13:07;5.33;;;4.00;;
26050;SDS011;13825;53.496;10.020;2023-05-10T06:15:34;5.27;;;3.40;;
26050;SDS011;13825;53.496;10.020;2023-05-10T06:18:01;6.30;;;3.37;;
26050;SDS011;13825;53.496;10.020;2023-05-10T06:20:30;4.57;;;3.60;;
26050;SDS011;13825;53.496;10.020;2023-05-10T06:22:57;4.13;;;3.37;;
26050;SDS011;13825;53.496;10.020;2023-05-10T06:25:24;3.50;;;3.20;;
26050;SDS011;13825;53.496;10.020;2023-05-10T06:27:51;5.60;;;3.63;;
26050;SDS011;13825;53.496;10.020;2023-05-10T06:30:23;6.70;;;3.43;;
26050;SDS011;13825;53.496;10.020;2023-05-10T06:32:53;5.13;;;3.60;;
26050;SDS011;13825;53.496;10.020;2023-05-10T06:35:21;4.57;;;3.43;;
26050;SDS011;13825;53.496;10.020;2023-05-10T06:37:49;5.03;;;3.90;;
26050;SDS011;13825;53.496;10.020;2023-05-10T06:40:17;4.67;;;3.60;;
26050;SDS011;13825;53.496;10.020;2023-05-10T06:42:47;5.97;;;3.73;;
26050;SDS011;13825;53.496;10.020;2023-05-10T06:45:15;5.33;;;3.37;;
26050;SDS011;13825;53.496;10.020;2023-05-10T06:47:42;4.23;;;3.80;;
26050;SDS011;13825;53.496;10.020;2023-05-10T06:50:10;4.10;;;3.70;;
26050;SDS011;13825;53.496;10.020;2023-05-10T06:52:38;4.70;;;3.70;;
26050;SDS011;13825;53.496;10.020;2023-05-10T06:55:07;4.27;;;3.43;;
26050;SDS011;13825;53.496;10.020;2023-05-10T06:57:34;4.60;;;3.40;;
26050;SDS011;13825;53.496;10.020;2023-05-10T07:00:01;3.77;;;3.47;;
26050;SDS011;13825;53.496;10.020;2023-05-10T07:02:30;4.47;;;3.10;;
26050;SDS011;13825;53.496;10.020;2023-05-10T07:04:57;3.57;;;3.03;;
26050;SDS011;13825;53.496;10.020;2023-05-10T07:07:23;4.30;;;3.50;;
26050;SDS011;13825;53.496;10.020;2023-05-10T07:09:51;4.17;;;3.30;;
26050;SDS011;13825;53.496;10.020;2023-05-10T07:12:19;4.13;;;3.70;;
26050;SDS011;13825;53.496;10.020;2023-05-10T07:14:46;3.90;;;3.33;;
26050;SDS011;13825;53.496;10.020;2023-05-10T07:17:13;4.60;;;3.30;;
26050;SDS011;13825;53.496;10.020;2023-05-10T07:19:40;4.43;;;3.47;;
26050;SDS011;13825;53.496;10.020;2023-05-10T07:22:07;4.87;;;3.50;;
26050;SDS011;13825;53.496;10.020;2023-05-10T07:24:35;3.70;;;3.30;;
26050;SDS011;13825;53.496;10.020;2023-05-10T07:27:02;6.60;;;3.77;;
26050;SDS011;13825;53.496;10.020;2023-05-10T07:29:30;5.53;;;3.33;;
26050;SDS011;13825;53.496;10.020;2023-05-10T07:31:57;4.77;;;3.17;;
26050;SDS011;13825;53.496;10.020;2023-05-10T07:34:24;4.07;;;3.57;;
26050;SDS011;13825;53.496;10.020;2023-05-10T07:36:51;5.67;;;3.40;;
26050;SDS011;13825;53.496;10.020;2023-05-10T07:39:18;4.07;;;3.53;;
26050;SDS011;13825;53.496;10.020;2023-05-10T07:41:46;5.57;;;3.20;;
26050;SDS011;13825;53.496;10.020;2023-05-10T07:44:13;4.37;;;3.40;;
26050;SDS011;13825;53.496;10.020;2023-05-10T07:46:44;4.03;;;3.50;;
26050;SDS011;13825;53.496;10.020;2023-05-10T07:49:11;7.40;;;3.80;;
26050;SDS011;13825;53.496;10.020;2023-05-10T07:51:38;4.00;;;3.20;;
26050;SDS011;13825;53.496;10.020;2023-05-10T07:54:05;5.37;;;3.70;;
26050;SDS011;13825;53.496;10.020;2023-05-10T07:56:32;3.37;;;2.90;;
26050;SDS011;13825;53.496;10.020;2023-05-10T07:59:00;4.13;;;3.13;;
26050;SDS011;13825;53.496;10.020;2023-05-10T08:01:29;4.80;;;3.07;;
26050;SDS011;13825;53.496;10.020;2023-05-10T08:03:59;3.93;;;3.40;;
26050;SDS011;13825;53.496;10.020;2023-05-10T08:06:26;5.37;;;3.97;;
26050;SDS011;13825;53.496;10.020;2023-05-10T08:08:55;4.00;;;3.33;;
26050;SDS011;13825;53.496;10.020;2023-05-10T08:11:22;5.63;;;3.33;;
26050;SDS011;13825;53.496;10.020;2023-05-10T08:13:50;4.70;;;3.23;;
26050;SDS011;13825;53.496;10.020;2023-05-10T08:16:18;4.73;;;3.33;;
26050;SDS011;13825;53.496;10.020;2023-05-10T08:18:45;4.17;;;3.63;;
26050;SDS011;13825;53.496;10.020;2023-05-10T08:21:15;4.53;;;3.73;;
26050;SDS011;13825;53.496;10.020;2023-05-10T08:23:45;5.47;;;3.80;;
26050;SDS011;13825;53.496;10.020;2023-05-10T08:26:12;3.70;;;3.30;;
26050;SDS011;13825;53.496;10.020;2023-05-10T08:28:39;4.57;;;3.60;;
26050;SDS011;13825;53.496;10.020;2023-05-10T08:31:06;3.90;;;3.47;;
26050;SDS011;13825;53.496;10.020;2023-05-10T08:33:33;6.13;;;3.57;;
26050;SDS011;13825;53.496;10.020;2023-05-10T08:35:59;4.50;;;3.53;;
26050;SDS011;13825;53.496;10.020;2023-05-10T08:38:28;4.77;;;3.60;;
26050;SDS011;13825;53.496;10.020;2023-05-10T08:40:55;4.00;;;3.57;;
26050;SDS011;13825;53.496;10.020;2023-05-10T08:43:23;4.57;;;3.70;;
26050;SDS011;13825;53.496;10.020;2023-05-10T08:45:54;3.90;;;3.50;;
26050;SDS011;13825;53.496;10.020;2023-05-10T08:48:22;4.20;;;3.50;;
26050;SDS011;13825;53.496;10.020;2023-05-10T08:50:52;3.83;;;3.10;;
26050;SDS011;13825;53.496;10.020;2023-05-10T08:53:20;5.10;;;3.50;;
26050;SDS011;13825;53.496;10.020;2023-05-10T08:55:51;3.73;;;3.20;;
26050;SDS011;13825;53.496;10.020;2023-05-10T08:58:19;6.53;;;4.30;;
26050;SDS011;13825;53.496;10.020;2023-05-10T09:00:46;4.87;;;3.50;;
26050;SDS011;13825;53.496;10.020;2023-05-10T09:03:15;5.60;;;3.97;;
26050;SDS011;13825;53.496;10.020;2023-05-10T09:05:43;5.60;;;3.97;;
26050;SDS011;13825;53.496;10.020;2023-05-10T09:08:11;7.20;;;3.70;;
26050;SDS011;13825;53.496;10.020;2023-05-10T09:10:41;6.23;;;4.00;;
26050;SDS011;13825;53.496;10.020;2023-05-10T09:13:11;9.73;;;3.83;;
26050;SDS011;13825;53.496;10.020;2023-05-10T09:15:38;4.73;;;3.70;;
26050;SDS011;13825;53.496;10.020;2023-05-10T09:18:05;4.53;;;3.60;;
26050;SDS011;13825;53.496;10.020;2023-05-10T09:20:32;7.40;;;3.80;;
26050;SDS011;13825;53.496;10.020;2023-05-10T09:22:59;5.53;;;4.03;;
26050;SDS011;13825;53.496;10.020;2023-05-10T09:25:26;6.20;;;4.30;;
26050;SDS011;13825;53.496;10.020;2023-05-10T09:27:53;5.10;;;4.00;;
26050;SDS011;13825;53.496;10.020;2023-05-10T09:30:26;5.83;;;3.57;;
26050;SDS011;13825;53.496;10.020;2023-05-10T09:32:56;5.03;;;4.10;;
26050;SDS011;13825;53.496;10.020;2023-05-10T09:35:24;5.63;;;4.30;;
26050;SDS011;13825;53.496;10.020;2023-05-10T09:37:53;5.00;;;3.87;;
26050;SDS011;13825;53.496;10.020;2023-05-10T09:40:21;8.77;;;4.47;;
26050;SDS011;13825;53.496;10.020;2023-05-10T09:42:53;8.10;;;4.83;;
26050;SDS011;13825;53.496;10.020;2023-05-10T09:45:23;11.27;;;5.37;;
26050;SDS011;13825;53.496;10.020;2023-05-10T09:47:53;5.70;;;4.60;;
26050;SDS011;13825;53.496;10.020;2023-05-10T09:50:20;5.13;;;4.40;;
26050;SDS011;13825;53.496;10.020;2023-05-10T09:52:48;10.97;;;4.40;;
26050;SDS011;13825;53.496;10.020;2023-05-10T09:55:17;7.17;;;5.30;;
26050;SDS011;13825;53.496;10.020;2023-05-10T09:57:45;11.50;;;5.00;;
26050;SDS011;13825;53.496;10.020;2023-05-10T10:00:16;5.13;;;4.47;;
26050;SDS011;13825;53.496;10.020;2023-05-10T10:02:47;5.10;;;4.23;;
26050;SDS011;13825;53.496;10.020;2023-05-10T10:05:14;5.70;;;4.23;;
26050;SDS011;13825;53.496;10.020;2023-05-10T10:07:42;5.60;;;4.97;;
26050;SDS011;13825;53.496;10.020;2023-05-10T10:10:09;7.10;;;4.87;;
26050;SDS011;13825;53.496;10.020;2023-05-10T10:12:38;8.10;;;5.60;;
26050;SDS011;13825;53.496;10.020;2023-05-10T10:15:07;7.20;;;5.13;;
26050;SDS011;13825;53.496;10.020;2023-05-10T10:17:35;6.73;;;5.40;;
26050;SDS011;13825;53.496;10.020;2023-05-10T10:20:06;7.27;;;5.07;;
26050;SDS011;13825;53.496;10.020;2023-05-10T10:22:34;10.47;;;5.70;;
26050;SDS011;13825;53.496;10.020;2023-05-10T10:25:02;15.90;;;5.67;;
26050;SDS011;13825;53.496;10.020;2023-05-10T10:27:33;8.97;;;6.17;;
26050;SDS011;13825;53.496;10.020;2023-05-10T10:30:10;7.30;;;5.20;;
26050;SDS011;13825;53.496;10.020;2023-05-10T10:32:54;5.77;;;5.00;;
26050;SDS011;13825;53.496;10.020;2023-05-10T10:35:34;7.27;;;4.93;;
26050;SDS011;13825;53.496;10.020;2023-05-10T10:38:02;6.90;;;5.03;;
26050;SDS011;13825;53.496;10.020;2023-05-10T10:40:29;8.07;;;5.50;;
26050;SDS011;13825;53.496;10.020;2023-05-10T10:42:57;7.60;;;5.47;;
26050;SDS011;13825;53.496;10.020;2023-05-10T10:46:08;7.10;;;5.27;;
26050;SDS011;13825;53.496;10.020;2023-05-10T10:48:38;5.77;;;4.87;;
26050;SDS011;13825;53.496;10.020;2023-05-10T10:51:07;7.83;;;5.60;;
26050;SDS011;13825;53.496;10.020;2023-05-10T10:53:34;7.30;;;5.33;;
26050;SDS011;13825;53.496;10.020;2023-05-10T10:56:06;7.10;;;5.53;;
26050;SDS011;13825;53.496;10.020;2023-05-10T10:58:34;8.60;;;5.80;;
26050;SDS011;13825;53.496;10.020;2023-05-10T11:01:22;7.67;;;5.80;;
26050;SDS011;13825;53.496;10.020;2023-05-10T11:05:24;7.53;;;5.13;;
26050;SDS011;13825;53.496;10.020;2023-05-10T11:37:13;10.30;;;6.03;;
26050;SDS011;13825;53.496;10.020;2023-05-10T11:50:13;8.43;;;6.47;;
26050;SDS011;13825;53.496;10.020;2023-05-10T12:18:30;10.07;;;6.60;;
26050;SDS011;13825;53.496;10.020;2023-05-10T12:21:02;7.00;;;5.83;;
26050;SDS011;13825;53.496;10.020;2023-05-10T12:23:29;10.20;;;6.37;;
26050;SDS011;13825;53.496;10.020;2023-05-10T12:26:01;7.90;;;5.73;;
26050;SDS011;13825;53.496;10.020;2023-05-10T12:28:29;5.97;;;5.27;;
26050;SDS011;13825;53.496;10.020;2023-05-10T12:30:57;6.80;;;5.27;;
26050;SDS011;13825;53.496;10.020;2023-05-10T12:33:24;7.37;;;5.37;;
26050;SDS011;13825;53.496;10.020;2023-05-10T12:35:53;7.90;;;5.70;;
26050;SDS011;13825;53.496;10.020;2023-05-10T12:38:25;7.93;;;5.70;;
26050;SDS011;13825;53.496;10.020;2023-05-10T12:40:54;6.57;;;5.00;;
26050;SDS011;13825;53.496;10.020;2023-05-10T12:43:21;6.10;;;4.60;;
26050;SDS011;13825;53.496;10.020;2023-05-10T12:45:48;6.53;;;5.10;;
26050;SDS011;13825;53.496;10.020;2023-05-10T12:48:15;7.43;;;5.17;;
26050;SDS011;13825;53.496;10.020;2023-05-10T12:50:42;6.77;;;5.00;;
26050;SDS011;13825;53.496;10.020;2023-05-10T12:53:11;6.80;;;4.73;;
26050;SDS011;13825;53.496;10.020;2023-05-10T12:55:38;5.23;;;4.63;;
26050;SDS011;13825;53.496;10.020;2023-05-10T12:58:05;5.70;;;4.53;;
26050;SDS011;13825;53.496;10.020;2023-05-10T13:00:32;6.13;;;4.40;;
26050;SDS011;13825;53.496;10.020;2023-05-10T13:03:06;4.50;;;3.70;;
26050;SDS011;13825;53.496;10.020;2023-05-10T13:05:33;4.40;;;4.00;;
26050;SDS011;13825;53.496;10.020;2023-05-10T13:08:00;5.97;;;4.87;;
26050;SDS011;13825;53.496;10.020;2023-05-10T13:10:29;5.00;;;4.50;;
26050;SDS011;13825;53.496;10.020;2023-05-10T13:12:56;6.17;;;4.53;;
26050;SDS011;13825;53.496;10.020;2023-05-10T13:15:23;5.77;;;4.30;;
26050;SDS011;13825;53.496;10.020;2023-05-10T13:17:50;6.10;;;4.83;;
26050;SDS011;13825;53.496;10.020;2023-05-10T13:20:18;7.20;;;5.37;;
26050;SDS011;13825;53.496;10.020;2023-05-10T13:22:44;5.30;;;4.10;;
26050;SDS011;13825;53.496;10.020;2023-05-10T13:25:11;6.33;;;4.47;;
26050;SDS011;13825;53.496;10.020;2023-05-10T13:27:40;5.37;;;4.40;;
26050;SDS011;13825;53.496;10.020;2023-05-10T13:30:07;7.20;;;4.43;;
26050;SDS011;13825;53.496;10.020;2023-05-10T13:32:36;6.97;;;4.17;;
26050;SDS011;13825;53.496;10.020;2023-05-10T13:35:04;6.37;;;4.80;;
26050;SDS011;13825;53.496;10.020;2023-05-10T13:37:32;5.60;;;4.23;;
26050;SDS011;13825;53.496;10.020;2023-05-10T13:40:01;6.43;;;4.40;;
26050;SDS011;13825;53.496;10.020;2023-05-10T13:42:29;5.83;;;4.70;;
26050;SDS011;13825;53.496;10.020;2023-05-10T13:44:58;5.37;;;4.27;;
26050;SDS011;13825;53.496;10.020;2023-05-10T13:47:27;5.70;;;4.70;;
26050;SDS011;13825;53.496;10.020;2023-05-10T13:49:54;5.10;;;4.50;;
26050;SDS011;13825;53.496;10.020;2023-05-10T13:52:22;5.53;;;4.57;;
26050;SDS011;13825;53.496;10.020;2023-05-10T13:54:49;7.27;;;5.53;;
26050;SDS011;13825;53.496;10.020;2023-05-10T13:57:19;5.27;;;4.63;;
26050;SDS011;13825;53.496;10.020;2023-05-10T13:59:47;5.67;;;4.60;;
26050;SDS011;13825;53.496;10.020;2023-05-10T14:02:15;5.30;;;4.77;;
26050;SDS011;13825;53.496;10.020;2023-05-10T14:04:42;5.77;;;4.63;;
26050;SDS011;13825;53.496;10.020;2023-05-10T14:07:09;5.00;;;4.50;;
26050;SDS011;13825;53.496;10.020;2023-05-10T14:09:37;5.30;;;4.60;;
26050;SDS011;13825;53.496;10.020;2023-05-10T14:12:07;6.53;;;4.80;;
26050;SDS011;13825;53.496;10.020;2023-05-10T14:14:34;6.93;;;4.67;;
26050;SDS011;13825;53.496;10.020;2023-05-10T14:17:01;5.67;;;4.67;;
26050;SDS011;13825;53.496;10.020;2023-05-10T14:19:30;5.43;;;4.73;;
26050;SDS011;13825;53.496;10.020;2023-05-10T14:21:59;5.73;;;5.10;;
26050;SDS011;13825;53.496;10.020;2023-05-10T14:24:28;7.30;;;4.70;;
26050;SDS011;13825;53.496;10.020;2023-05-10T14:26:56;6.33;;;4.90;;
26050;SDS011;13825;53.496;10.020;2023-05-10T14:29:23;7.43;;;5.67;;
26050;SDS011;13825;53.496;10.020;2023-05-10T14:31:51;5.43;;;4.40;;
26050;SDS011;13825;53.496;10.020;2023-05-10T14:34:20;6.23;;;5.03;;
26050;SDS011;13825;53.496;10.020;2023-05-10T14:36:52;6.90;;;4.83;;
26050;SDS011;13825;53.496;10.020;2023-05-10T14:39:19;6.00;;;4.37;;
26050;SDS011;13825;53.496;10.020;2023-05-10T14:41:46;6.37;;;5.07;;
26050;SDS011;13825;53.496;10.020;2023-05-10T14:44:13;5.70;;;4.97;;
26050;SDS011;13825;53.496;10.020;2023-05-10T14:46:41;5.07;;;4.43;;
26050;SDS011;13825;53.496;10.020;2023-05-10T14:49:10;5.60;;;4.83;;
26050;SDS011;13825;53.496;10.020;2023-05-10T14:51:37;5.33;;;4.57;;
26050;SDS011;13825;53.496;10.020;2023-05-10T14:54:06;5.63;;;4.77;;
26050;SDS011;13825;53.496;10.020;2023-05-10T14:56:35;4.90;;;4.43;;
26050;SDS011;13825;53.496;10.020;2023-05-10T14:59:03;5.87;;;4.90;;
26050;SDS011;13825;53.496;10.020;2023-05-10T15:01:30;4.93;;;4.30;;
26050;SDS011;13825;53.496;10.020;2023-05-10T15:03:59;5.47;;;4.60;;
26050;SDS011;13825;53.496;10.020;2023-05-10T15:06:30;5.13;;;4.47;;
26050;SDS011;13825;53.496;10.020;2023-05-10T15:08:57;4.83;;;4.20;;
26050;SDS011;13825;53.496;10.020;2023-05-10T15:11:29;4.93;;;4.43;;
26050;SDS011;13825;53.496;10.020;2023-05-10T15:13:56;4.40;;;4.00;;
26050;SDS011;13825;53.496;10.020;2023-05-10T15:16:23;4.50;;;3.90;;
26050;SDS011;13825;53.496;10.020;2023-05-10T15:18:55;5.27;;;4.13;;
26050;SDS011;13825;53.496;10.020;2023-05-10T15:21:27;6.60;;;4.17;;
26050;SDS011;13825;53.496;10.020;2023-05-10T15:23:57;4.67;;;4.00;;
26050;SDS011;13825;53.496;10.020;2023-05-10T15:26:25;4.47;;;4.00;;
26050;SDS011;13825;53.496;10.020;2023-05-10T15:28:53;4.53;;;3.97;;
26050;SDS011;13825;53.496;10.020;2023-05-10T15:31:20;5.30;;;3.80;;
26050;SDS011;13825;53.496;10.020;2023-05-10T15:33:47;4.70;;;4.20;;
26050;SDS011;13825;53.496;10.020;2023-05-10T15:36:14;4.57;;;4.10;;
26050;SDS011;13825;53.496;10.020;2023-05-10T15:38:42;4.70;;;4.20;;
26050;SDS011;13825;53.496;10.020;2023-05-10T15:41:10;5.50;;;4.23;;
26050;SDS011;13825;53.496;10.020;2023-05-10T15:43:37;6.10;;;4.40;;
26050;SDS011;13825;53.496;10.020;2023-05-10T15:46:07;7.40;;;4.43;;
26050;SDS011;13825;53.496;10.020;2023-05-10T15:48:34;4.83;;;3.87;;
26050;SDS011;13825;53.496;10.020;2023-05-10T15:51:09;4.97;;;3.97;;